createdAt,value
2022-08-21T00:00:25.439Z,12.44
2022-08-21T00:00:56.936Z,12.32
2022-08-21T00:01:29.238Z,12.43
2022-08-21T00:02:00.721Z,12.47
2022-08-21T00:02:32.270Z,12.49
2022-08-21T00:03:05.991Z,12.53
2022-08-21T00:03:37.470Z,12.54
2022-08-21T00:04:10.013Z,12.51
2022-08-21T00:04:55.907Z,12.48
2022-08-21T00:05:29.350Z,12.49
2022-08-21T00:06:01.220Z,12.42
2022-08-21T00:06:34.701Z,12.39
2022-08-21T00:07:06.326Z,12.39
2022-08-21T00:07:38.158Z,12.39
2022-08-21T00:08:09.692Z,12.31
2022-08-21T00:08:41.187Z,12.27
2022-08-21T00:09:12.791Z,12.16
2022-08-21T00:09:44.335Z,12.22
2022-08-21T00:10:16.036Z,12.14
2022-08-21T00:10:47.739Z,12.14
2022-08-21T00:11:19.196Z,12.14
2022-08-21T00:11:50.711Z,12.17
2022-08-21T00:12:22.315Z,12.17
2022-08-21T00:12:54.067Z,12.23
2022-08-21T00:13:26.001Z,12.18
2022-08-21T00:13:57.449Z,12.20
2022-08-21T00:14:31.305Z,12.18
2022-08-21T00:15:04.816Z,12.22
2022-08-21T00:15:40.951Z,12.16
2022-08-21T00:16:13.795Z,12.13
2022-08-21T00:16:45.278Z,12.11
2022-08-21T00:17:16.710Z,12.12
2022-08-21T00:17:48.368Z,12.12
2022-08-21T00:18:20.252Z,12.13
2022-08-21T00:18:51.792Z,12.11
2022-08-21T00:19:25.775Z,12.06
2022-08-21T00:20:00.093Z,12.05
2022-08-21T00:20:31.748Z,11.97
2022-08-21T00:21:03.236Z,11.96
2022-08-21T00:21:35.362Z,11.91
2022-08-21T00:22:07.046Z,11.87
2022-08-21T00:22:38.537Z,11.82
2022-08-21T00:23:10.076Z,11.74
2022-08-21T00:23:42.451Z,11.98
2022-08-21T00:24:13.909Z,12.14
2022-08-21T00:24:45.365Z,11.82
2022-08-21T00:25:17.272Z,11.83
2022-08-21T00:25:51.419Z,11.77
2022-08-21T00:26:22.859Z,11.84
2022-08-21T00:26:54.304Z,11.78
2022-08-21T00:27:26.280Z,11.79
2022-08-21T00:27:57.980Z,11.77
2022-08-21T00:28:29.458Z,11.77
2022-08-21T00:29:00.928Z,11.80
2022-08-21T00:29:33.209Z,11.80
2022-08-21T00:30:05.976Z,11.72
2022-08-21T00:30:37.927Z,11.73
2022-08-21T00:31:10.120Z,11.75
2022-08-21T00:31:42.004Z,11.78
2022-08-21T00:32:13.690Z,11.72
2022-08-21T00:32:45.211Z,11.77
2022-08-21T00:33:16.700Z,11.76
2022-08-21T00:33:48.143Z,11.76
2022-08-21T00:34:19.622Z,11.72
2022-08-21T00:34:51.132Z,11.74
2022-08-21T00:35:30.020Z,11.70
2022-08-21T00:36:01.553Z,11.73
2022-08-21T00:36:33.049Z,11.75
2022-08-21T00:37:05.303Z,11.74
2022-08-21T00:37:36.815Z,11.76
2022-08-21T00:38:09.174Z,11.69
2022-08-21T00:38:40.619Z,11.70
2022-08-21T00:39:12.054Z,11.68
2022-08-21T00:39:43.914Z,11.67
2022-08-21T00:40:16.835Z,11.74
2022-08-21T00:40:53.045Z,11.75
2022-08-21T00:41:38.609Z,11.74
2022-08-21T00:42:10.757Z,11.74
2022-08-21T00:42:42.460Z,11.76
2022-08-21T00:43:15.720Z,11.78
2022-08-21T00:43:49.982Z,11.80
2022-08-21T00:44:21.460Z,11.89
2022-08-21T00:44:52.949Z,11.91
2022-08-21T00:45:24.696Z,11.89
2022-08-21T00:45:56.335Z,11.90
2022-08-21T00:46:28.446Z,11.86
2022-08-21T00:47:00.029Z,11.85
2022-08-21T00:47:31.474Z,11.84
2022-08-21T00:48:03.019Z,11.75
2022-08-21T00:48:34.764Z,11.72
2022-08-21T00:49:07.154Z,11.67
2022-08-21T00:49:39.423Z,11.62
2022-08-21T00:50:11.943Z,11.57
2022-08-21T00:51:13.161Z,11.53
2022-08-21T00:51:46.974Z,11.49
2022-08-21T00:52:19.361Z,11.52
2022-08-21T00:52:51.396Z,11.46
2022-08-21T00:53:23.487Z,11.42
2022-08-21T00:53:56.115Z,11.40
2022-08-21T00:54:28.963Z,11.46
2022-08-21T00:55:00.535Z,11.50
2022-08-21T00:55:33.827Z,11.48
2022-08-21T00:56:06.297Z,11.44
2022-08-21T00:56:37.820Z,11.40
2022-08-21T00:57:10.751Z,11.45
2022-08-21T00:57:45.520Z,11.50
2022-08-21T00:58:17.501Z,11.52
2022-08-21T00:58:53.539Z,11.51
2022-08-21T00:59:26.872Z,11.51
2022-08-21T00:59:59.686Z,11.51
2022-08-21T01:00:32.652Z,11.48
2022-08-21T01:01:08.599Z,11.50
2022-08-21T01:01:40.365Z,11.52
2022-08-21T01:02:11.940Z,11.51
2022-08-21T01:02:43.393Z,11.53
2022-08-21T01:03:16.356Z,11.51
2022-08-21T01:03:47.962Z,11.54
2022-08-21T01:04:21.915Z,11.52
2022-08-21T01:04:53.387Z,11.52
2022-08-21T01:05:26.214Z,11.50
2022-08-21T01:05:57.772Z,11.50
2022-08-21T01:06:29.207Z,11.46
2022-08-21T01:07:00.739Z,11.45
2022-08-21T01:07:32.437Z,11.50
2022-08-21T01:08:04.675Z,11.39
2022-08-21T01:08:36.257Z,11.44
2022-08-21T01:09:08.766Z,11.48
2022-08-21T01:09:40.587Z,11.39
2022-08-21T01:10:21.574Z,11.44
2022-08-21T01:10:55.751Z,11.40
2022-08-21T01:11:30.573Z,11.42
2022-08-21T01:12:02.062Z,11.44
2022-08-21T01:12:33.967Z,11.45
2022-08-21T01:13:08.739Z,11.43
2022-08-21T01:13:45.622Z,11.45
2022-08-21T01:14:18.243Z,11.45
2022-08-21T01:14:49.682Z,11.43
2022-08-21T01:15:21.430Z,11.48
2022-08-21T01:15:54.363Z,11.46
2022-08-21T01:16:26.105Z,11.38
2022-08-21T01:16:57.901Z,11.34
2022-08-21T01:17:29.339Z,11.40
2022-08-21T01:18:03.318Z,11.35
2022-08-21T01:18:34.781Z,11.34
2022-08-21T01:19:06.719Z,11.38
2022-08-21T01:19:38.366Z,11.31
2022-08-21T01:20:10.653Z,11.33
2022-08-21T01:20:44.046Z,11.31
2022-08-21T01:21:19.448Z,11.25
2022-08-21T01:21:51.000Z,11.24
2022-08-21T01:22:22.729Z,11.27
2022-08-21T01:22:54.186Z,11.24
2022-08-21T01:23:25.920Z,11.18
2022-08-21T01:23:57.579Z,11.19
2022-08-21T01:24:29.149Z,11.20
2022-08-21T01:25:00.735Z,11.19
2022-08-21T01:25:32.685Z,11.15
2022-08-21T01:26:04.316Z,11.22
2022-08-21T01:26:35.825Z,11.21
2022-08-21T01:27:07.293Z,11.21
2022-08-21T01:27:39.738Z,11.24
2022-08-21T01:28:13.072Z,11.21
2022-08-21T01:28:45.565Z,11.22
2022-08-21T01:29:35.367Z,11.21
2022-08-21T01:30:12.071Z,11.21
2022-08-21T01:30:44.257Z,11.15
2022-08-21T01:31:15.716Z,11.17
2022-08-21T01:31:48.431Z,11.10
2022-08-21T01:32:20.175Z,11.21
2022-08-21T01:32:52.083Z,11.20
2022-08-21T01:33:23.833Z,11.21
2022-08-21T01:33:55.971Z,11.26
2022-08-21T01:34:27.537Z,11.21
2022-08-21T01:34:58.947Z,11.25
2022-08-21T01:35:30.496Z,11.26
2022-08-21T01:36:03.743Z,11.23
2022-08-21T01:36:36.112Z,11.22
2022-08-21T01:37:07.627Z,11.22
2022-08-21T01:37:39.111Z,11.19
2022-08-21T01:38:10.548Z,11.18
2022-08-21T01:38:41.983Z,11.17
2022-08-21T01:39:13.793Z,11.17
2022-08-21T01:39:45.517Z,11.22
2022-08-21T01:40:18.764Z,11.26
2022-08-21T01:40:50.256Z,11.28
2022-08-21T01:41:21.688Z,11.19
2022-08-21T01:41:53.123Z,11.18
2022-08-21T01:42:24.592Z,11.20
2022-08-21T01:42:56.233Z,11.23
2022-08-21T01:43:39.202Z,11.07
2022-08-21T01:44:11.505Z,11.12
2022-08-21T01:44:42.996Z,11.12
2022-08-21T01:45:14.980Z,11.08
2022-08-21T01:45:46.404Z,11.09
2022-08-21T01:46:17.975Z,11.08
2022-08-21T01:46:49.483Z,11.00
2022-08-21T01:47:20.906Z,10.98
2022-08-21T01:47:52.524Z,10.99
2022-08-21T01:48:23.993Z,10.87
2022-08-21T01:48:55.478Z,10.94
2022-08-21T01:49:27.026Z,10.92
2022-08-21T01:49:58.444Z,10.81
2022-08-21T01:50:30.023Z,10.82
2022-08-21T01:51:01.619Z,10.89
2022-08-21T01:51:33.244Z,10.88
2022-08-21T01:52:04.998Z,10.92
2022-08-21T01:52:36.686Z,10.93
2022-08-21T01:53:08.128Z,10.92
2022-08-21T01:53:39.873Z,10.95
2022-08-21T01:54:11.550Z,10.99
2022-08-21T01:54:43.870Z,10.91
2022-08-21T01:55:16.917Z,10.95
2022-08-21T01:55:48.722Z,11.01
2022-08-21T01:56:20.157Z,11.03
2022-08-21T01:56:52.689Z,11.03
2022-08-21T01:57:26.291Z,10.93
2022-08-21T01:57:58.312Z,10.94
2022-08-21T01:58:29.810Z,11.01
2022-08-21T01:59:01.264Z,11.00
2022-08-21T01:59:32.699Z,11.05
2022-08-21T02:00:05.685Z,11.01
2022-08-21T02:00:43.980Z,11.01
2022-08-21T02:01:15.883Z,11.01
2022-08-21T02:01:48.143Z,11.00
2022-08-21T02:02:19.598Z,10.99
2022-08-21T02:02:51.080Z,10.98
2022-08-21T02:03:34.979Z,10.97
2022-08-21T02:04:08.160Z,10.91
2022-08-21T02:04:39.717Z,10.90
2022-08-21T02:05:12.828Z,10.94
2022-08-21T02:05:44.255Z,10.88
2022-08-21T02:06:18.538Z,10.92
2022-08-21T02:06:50.467Z,10.85
2022-08-21T02:07:22.302Z,10.88
2022-08-21T02:07:54.121Z,10.88
2022-08-21T02:08:25.770Z,10.83
2022-08-21T02:08:57.186Z,10.82
2022-08-21T02:09:29.475Z,10.79
2022-08-21T02:10:01.499Z,10.84
2022-08-21T02:10:33.156Z,10.79
2022-08-21T02:11:04.575Z,10.82
2022-08-21T02:11:42.031Z,10.82
2022-08-21T02:12:15.842Z,10.74
2022-08-21T02:12:47.627Z,10.74
2022-08-21T02:13:19.508Z,10.78
2022-08-21T02:13:50.984Z,10.76
2022-08-21T02:14:32.037Z,10.76
2022-08-21T02:15:05.459Z,10.76
2022-08-21T02:15:37.447Z,10.76
2022-08-21T02:16:09.315Z,10.80
2022-08-21T02:16:42.647Z,10.80
2022-08-21T02:17:14.100Z,10.83
2022-08-21T02:17:47.092Z,10.84
2022-08-21T02:18:19.245Z,10.77
2022-08-21T02:18:51.120Z,10.77
2022-08-21T02:19:23.501Z,10.72
2022-08-21T02:19:56.042Z,10.63
2022-08-21T02:20:32.512Z,10.61
2022-08-21T02:21:04.600Z,10.63
2022-08-21T02:21:36.053Z,10.60
2022-08-21T02:22:08.771Z,10.64
2022-08-21T02:22:40.210Z,10.69
2022-08-21T02:23:11.830Z,10.61
2022-08-21T02:23:43.367Z,10.65
2022-08-21T02:24:14.851Z,10.70
2022-08-21T02:24:54.378Z,10.62
2022-08-21T02:25:27.554Z,10.69
2022-08-21T02:25:59.893Z,10.70
2022-08-21T02:26:31.302Z,10.77
2022-08-21T02:27:02.761Z,10.68
2022-08-21T02:27:44.017Z,10.76
2022-08-21T02:28:15.793Z,10.77
2022-08-21T02:28:47.317Z,10.72
2022-08-21T02:29:18.939Z,10.75
2022-08-21T02:29:50.379Z,10.79
2022-08-21T02:30:24.430Z,10.71
2022-08-21T02:30:56.684Z,10.69
2022-08-21T02:31:28.192Z,10.74
2022-08-21T02:31:59.814Z,10.72
2022-08-21T02:32:32.057Z,10.65
2022-08-21T02:33:03.511Z,10.74
2022-08-21T02:33:35.103Z,10.76
2022-08-21T02:34:06.564Z,10.81
2022-08-21T02:34:38.007Z,10.78
2022-08-21T02:35:10.277Z,10.77
2022-08-21T02:35:45.285Z,10.63
2022-08-21T02:36:16.730Z,10.71
2022-08-21T02:36:59.312Z,10.72
2022-08-21T02:37:31.502Z,10.70
2022-08-21T02:38:05.513Z,10.68
2022-08-21T02:38:41.364Z,10.66
2022-08-21T02:39:12.828Z,10.74
2022-08-21T02:39:44.529Z,10.70
2022-08-21T02:40:16.506Z,10.68
2022-08-21T02:40:51.170Z,10.69
2022-08-21T02:41:22.848Z,10.63
2022-08-21T02:41:54.377Z,10.64
2022-08-21T02:42:25.846Z,10.56
2022-08-21T02:43:00.085Z,10.66
2022-08-21T02:43:31.725Z,10.65
2022-08-21T02:44:03.268Z,10.67
2022-08-21T02:44:34.937Z,10.65
2022-08-21T02:45:07.104Z,10.66
2022-08-21T02:45:39.007Z,10.60
2022-08-21T02:46:11.185Z,10.59
2022-08-21T02:46:42.610Z,10.58
2022-08-21T02:47:14.733Z,10.56
2022-08-21T02:47:52.928Z,10.65
2022-08-21T02:48:26.156Z,10.64
2022-08-21T02:48:57.584Z,10.63
2022-08-21T02:49:29.170Z,10.51
2022-08-21T02:50:00.604Z,10.58
2022-08-21T02:50:36.223Z,10.62
2022-08-21T02:51:09.000Z,10.63
2022-08-21T02:51:40.423Z,10.59
2022-08-21T02:52:12.833Z,10.60
2022-08-21T02:52:44.298Z,10.58
2022-08-21T02:53:17.655Z,10.59
2022-08-21T02:53:49.505Z,10.61
2022-08-21T02:54:21.181Z,10.58
2022-08-21T02:54:52.625Z,10.52
2022-08-21T02:55:24.668Z,10.57
2022-08-21T02:55:57.725Z,10.58
2022-08-21T02:56:31.514Z,10.53
2022-08-21T02:57:04.396Z,10.51
2022-08-21T02:57:36.900Z,10.53
2022-08-21T02:58:08.861Z,10.48
2022-08-21T02:58:42.610Z,10.48
2022-08-21T02:59:14.064Z,10.46
2022-08-21T02:59:45.700Z,10.44
2022-08-21T03:00:17.412Z,10.40
2022-08-21T03:00:48.853Z,10.38
2022-08-21T03:01:21.113Z,10.41
2022-08-21T03:01:52.598Z,10.38
2022-08-21T03:02:24.069Z,10.43
2022-08-21T03:02:58.444Z,10.41
2022-08-21T03:03:30.263Z,10.40
2022-08-21T03:04:01.747Z,10.40
2022-08-21T03:04:33.379Z,10.39
2022-08-21T03:05:05.729Z,10.38
2022-08-21T03:05:38.548Z,10.40
2022-08-21T03:06:12.224Z,10.37
2022-08-21T03:06:44.135Z,10.34
2022-08-21T03:07:16.279Z,10.32
2022-08-21T03:07:48.091Z,10.34
2022-08-21T03:08:19.704Z,10.38
2022-08-21T03:08:52.131Z,10.36
2022-08-21T03:09:23.611Z,10.23
2022-08-21T03:09:55.952Z,10.34
2022-08-21T03:10:28.134Z,10.37
2022-08-21T03:11:01.878Z,10.35
2022-08-21T03:11:34.391Z,10.38
2022-08-21T03:12:08.460Z,10.42
2022-08-21T03:12:39.943Z,10.42
2022-08-21T03:13:11.920Z,10.42
2022-08-21T03:13:43.684Z,10.43
2022-08-21T03:14:15.271Z,10.47
2022-08-21T03:14:46.729Z,10.45
2022-08-21T03:15:19.305Z,10.44
2022-08-21T03:15:50.804Z,10.42
2022-08-21T03:16:22.236Z,10.28
2022-08-21T03:16:53.717Z,10.31
2022-08-21T03:17:29.927Z,10.37
2022-08-21T03:18:02.265Z,10.37
2022-08-21T03:18:33.750Z,10.37
2022-08-21T03:19:05.601Z,10.39
2022-08-21T03:19:37.055Z,10.42
2022-08-21T03:20:08.926Z,10.44
2022-08-21T03:20:40.808Z,10.42
2022-08-21T03:21:14.045Z,10.43
2022-08-21T03:21:45.573Z,10.39
2022-08-21T03:22:17.094Z,10.33
2022-08-21T03:22:50.882Z,10.39
2022-08-21T03:23:24.798Z,10.40
2022-08-21T03:23:56.574Z,10.41
2022-08-21T03:24:28.066Z,10.44
2022-08-21T03:25:00.144Z,10.45
2022-08-21T03:25:40.647Z,10.39
2022-08-21T03:26:12.540Z,10.47
2022-08-21T03:26:44.461Z,10.44
2022-08-21T03:27:19.631Z,10.42
2022-08-21T03:27:57.049Z,10.39
2022-08-21T03:28:30.742Z,10.35
2022-08-21T03:29:02.174Z,10.38
2022-08-21T03:29:33.659Z,10.46
2022-08-21T03:30:06.117Z,10.42
2022-08-21T03:30:37.643Z,10.38
2022-08-21T03:31:09.699Z,10.41
2022-08-21T03:31:41.170Z,10.27
2022-08-21T03:32:12.652Z,10.32
2022-08-21T03:32:44.103Z,10.29
2022-08-21T03:33:15.922Z,10.25
2022-08-21T03:33:47.368Z,10.28
2022-08-21T03:34:18.932Z,10.18
2022-08-21T03:34:50.471Z,10.27
2022-08-21T03:35:21.924Z,10.21
2022-08-21T03:35:56.252Z,10.24
2022-08-21T03:36:27.680Z,10.31
2022-08-21T03:36:59.499Z,10.32
2022-08-21T03:37:30.952Z,10.33
2022-08-21T03:38:02.533Z,10.24
2022-08-21T03:38:34.557Z,10.29
2022-08-21T03:39:06.400Z,10.28
2022-08-21T03:39:37.917Z,10.26
2022-08-21T03:40:10.192Z,10.30
2022-08-21T03:40:43.252Z,10.25
2022-08-21T03:41:14.723Z,10.28
2022-08-21T03:41:46.272Z,10.35
2022-08-21T03:42:17.689Z,10.37
2022-08-21T03:42:49.290Z,10.41
2022-08-21T03:43:20.962Z,10.43
2022-08-21T03:43:52.419Z,10.46
2022-08-21T03:44:23.874Z,10.51
2022-08-21T03:44:58.354Z,10.47
2022-08-21T03:45:29.926Z,10.44
2022-08-21T03:46:02.298Z,10.45
2022-08-21T03:46:33.732Z,10.41
2022-08-21T03:47:05.322Z,10.41
2022-08-21T03:47:36.890Z,10.44
2022-08-21T03:48:08.680Z,10.39
2022-08-21T03:48:40.168Z,10.38
2022-08-21T03:49:11.610Z,10.33
2022-08-21T03:49:43.118Z,10.37
2022-08-21T03:50:16.844Z,10.37
2022-08-21T03:50:50.283Z,10.37
2022-08-21T03:51:21.821Z,10.27
2022-08-21T03:51:59.467Z,10.27
2022-08-21T03:52:31.554Z,10.31
2022-08-21T03:53:03.159Z,10.27
2022-08-21T03:53:34.983Z,10.32
2022-08-21T03:54:06.422Z,10.32
2022-08-21T03:54:38.074Z,10.30
2022-08-21T03:55:11.978Z,10.23
2022-08-21T03:55:43.536Z,10.25
2022-08-21T03:56:14.983Z,10.14
2022-08-21T03:56:46.487Z,10.18
2022-08-21T03:57:18.231Z,10.24
2022-08-21T03:57:49.673Z,10.21
2022-08-21T03:58:22.540Z,10.17
2022-08-21T03:58:53.959Z,10.17
2022-08-21T03:59:26.348Z,10.17
2022-08-21T03:59:58.553Z,10.13
2022-08-21T04:00:30.051Z,10.11
2022-08-21T04:01:01.862Z,10.10
2022-08-21T04:01:33.393Z,10.09
2022-08-21T04:02:05.538Z,10.10
2022-08-21T04:02:37.032Z,10.12
2022-08-21T04:03:08.545Z,10.15
2022-08-21T04:03:39.984Z,10.15
2022-08-21T04:04:11.414Z,10.02
2022-08-21T04:04:45.270Z,10.05
2022-08-21T04:05:28.230Z,10.07
2022-08-21T04:06:00.232Z,10.07
2022-08-21T04:06:37.148Z,10.06
2022-08-21T04:07:09.151Z,10.04
2022-08-21T04:07:59.404Z,10.02
2022-08-21T04:08:31.352Z,10.07
2022-08-21T04:09:03.193Z,10.09
2022-08-21T04:09:34.641Z,10.03
2022-08-21T04:10:06.804Z,10.02
2022-08-21T04:10:39.138Z,10.06
2022-08-21T04:11:13.347Z,10.06
2022-08-21T04:11:44.839Z,10.03
2022-08-21T04:12:16.316Z,10.03
2022-08-21T04:12:47.878Z,10.03
2022-08-21T04:13:19.411Z,9.97
2022-08-21T04:13:50.949Z,9.90
2022-08-21T04:14:23.188Z,9.93
2022-08-21T04:14:54.639Z,9.89
2022-08-21T04:15:26.816Z,9.89
2022-08-21T04:15:59.570Z,9.92
2022-08-21T04:16:31.817Z,9.89
2022-08-21T04:17:03.488Z,9.89
2022-08-21T04:17:38.784Z,9.85
2022-08-21T04:18:10.832Z,9.89
2022-08-21T04:18:42.639Z,9.91
2022-08-21T04:19:14.228Z,9.87
2022-08-21T04:19:49.391Z,9.89
2022-08-21T04:20:25.959Z,9.94
2022-08-21T04:20:57.610Z,9.98
2022-08-21T04:21:30.471Z,10.05
2022-08-21T04:22:02.686Z,10.06
2022-08-21T04:22:34.266Z,10.11
2022-08-21T04:23:05.785Z,10.14
2022-08-21T04:23:37.547Z,10.09
2022-08-21T04:24:10.562Z,10.14
2022-08-21T04:24:42.132Z,10.12
2022-08-21T04:25:13.996Z,10.12
2022-08-21T04:25:45.487Z,10.12
2022-08-21T04:26:17.005Z,10.05
2022-08-21T04:26:48.444Z,10.06
2022-08-21T04:27:19.947Z,10.10
2022-08-21T04:27:52.128Z,10.08
2022-08-21T04:28:27.226Z,10.01
2022-08-21T04:29:01.148Z,10.12
2022-08-21T04:29:33.764Z,10.08
2022-08-21T04:30:07.383Z,10.00
2022-08-21T04:30:38.901Z,10.04
2022-08-21T04:31:10.329Z,9.83
2022-08-21T04:31:41.751Z,9.93
2022-08-21T04:32:13.209Z,10.00
2022-08-21T04:32:49.623Z,10.01
2022-08-21T04:33:21.961Z,10.05
2022-08-21T04:33:53.443Z,9.99
2022-08-21T04:34:24.875Z,10.07
2022-08-21T04:35:00.224Z,10.07
2022-08-21T04:35:31.669Z,10.08
2022-08-21T04:36:03.610Z,10.15
2022-08-21T04:36:35.229Z,10.14
2022-08-21T04:37:06.678Z,10.11
2022-08-21T04:37:42.139Z,10.12
2022-08-21T04:38:13.882Z,10.10
2022-08-21T04:38:45.457Z,10.03
2022-08-21T04:39:17.376Z,10.07
2022-08-21T04:39:53.440Z,10.00
2022-08-21T04:40:26.422Z,10.07
2022-08-21T04:40:58.247Z,10.02
2022-08-21T04:41:30.078Z,9.98
2022-08-21T04:42:01.894Z,10.04
2022-08-21T04:42:33.826Z,10.06
2022-08-21T04:43:06.895Z,9.99
2022-08-21T04:43:38.993Z,10.06
2022-08-21T04:44:10.505Z,10.15
2022-08-21T04:44:42.419Z,10.08
2022-08-21T04:45:22.222Z,10.08
2022-08-21T04:45:53.878Z,10.07
2022-08-21T04:46:25.317Z,10.13
2022-08-21T04:46:56.745Z,10.12
2022-08-21T04:47:52.782Z,10.07
2022-08-21T04:48:20.872Z,10.18
2022-08-21T04:48:52.301Z,10.10
2022-08-21T04:49:23.727Z,10.07
2022-08-21T04:49:55.148Z,10.15
2022-08-21T04:50:32.448Z,10.14
2022-08-21T04:51:11.576Z,10.22
2022-08-21T04:51:43.051Z,10.27
2022-08-21T04:52:14.861Z,10.27
2022-08-21T04:52:46.333Z,10.32
2022-08-21T04:53:19.789Z,10.37
2022-08-21T04:53:53.116Z,10.27
2022-08-21T04:54:25.640Z,10.36
2022-08-21T04:54:57.228Z,10.45
2022-08-21T04:55:28.940Z,10.38
2022-08-21T04:56:05.628Z,10.36
2022-08-21T04:56:38.686Z,10.37
2022-08-21T04:57:12.204Z,10.32
2022-08-21T04:57:48.905Z,10.37
2022-08-21T04:58:21.462Z,10.34
2022-08-21T04:58:57.144Z,10.52
2022-08-21T04:59:29.318Z,10.47
2022-08-21T05:00:00.763Z,10.49
2022-08-21T05:00:32.214Z,10.50
2022-08-21T05:01:04.969Z,10.61
2022-08-21T05:01:36.915Z,10.60
2022-08-21T05:02:08.697Z,10.62
2022-08-21T05:02:40.672Z,10.63
2022-08-21T05:03:12.178Z,10.67
2022-08-21T05:03:43.593Z,10.54
2022-08-21T05:04:17.679Z,10.59
2022-08-21T05:04:50.213Z,10.64
2022-08-21T05:05:21.786Z,10.71
2022-08-21T05:05:53.414Z,10.61
2022-08-21T05:06:25.087Z,10.64
2022-08-21T05:06:57.561Z,10.58
2022-08-21T05:07:41.725Z,10.69
2022-08-21T05:08:15.480Z,10.68
2022-08-21T05:08:47.303Z,10.60
2022-08-21T05:09:18.871Z,10.65
2022-08-21T05:09:50.352Z,10.64
2022-08-21T05:10:21.886Z,10.67
2022-08-21T05:10:57.002Z,10.76
2022-08-21T05:11:31.568Z,10.78
2022-08-21T05:12:03.360Z,10.82
2022-08-21T05:12:35.231Z,10.82
2022-08-21T05:13:08.364Z,10.87
2022-08-21T05:13:42.305Z,10.93
2022-08-21T05:14:13.902Z,10.89
2022-08-21T05:14:45.352Z,10.96
2022-08-21T05:15:18.121Z,10.90
2022-08-21T05:15:50.040Z,10.95
2022-08-21T05:16:36.417Z,10.93
2022-08-21T05:17:09.808Z,11.01
2022-08-21T05:17:41.795Z,10.98
2022-08-21T05:18:13.802Z,11.01
2022-08-21T05:18:45.260Z,11.10
2022-08-21T05:19:17.599Z,11.10
2022-08-21T05:19:49.244Z,11.19
2022-08-21T05:20:20.803Z,11.08
2022-08-21T05:20:52.469Z,11.18
2022-08-21T05:21:24.031Z,11.25
2022-08-21T05:21:55.992Z,11.26
2022-08-21T05:22:27.438Z,11.24
2022-08-21T05:22:59.102Z,11.29
2022-08-21T05:23:30.628Z,11.28
2022-08-21T05:24:02.187Z,11.35
2022-08-21T05:24:33.902Z,11.40
2022-08-21T05:25:10.248Z,11.51
2022-08-21T05:25:42.496Z,11.51
2022-08-21T05:26:18.093Z,11.60
2022-08-21T05:26:50.184Z,11.52
2022-08-21T05:27:21.638Z,11.62
2022-08-21T05:27:55.151Z,11.65
2022-08-21T05:28:29.733Z,11.64
2022-08-21T05:29:01.187Z,11.72
2022-08-21T05:29:33.676Z,11.72
2022-08-21T05:30:06.077Z,11.71
2022-08-21T05:30:38.259Z,11.69
2022-08-21T05:31:09.767Z,11.75
2022-08-21T05:31:41.255Z,11.81
2022-08-21T05:32:13.830Z,11.83
2022-08-21T05:32:45.275Z,11.73
2022-08-21T05:33:16.966Z,11.79
2022-08-21T05:33:48.878Z,11.87
2022-08-21T05:34:24.202Z,11.98
2022-08-21T05:34:55.875Z,11.93
2022-08-21T05:35:28.256Z,11.97
2022-08-21T05:36:00.637Z,12.04
2022-08-21T05:36:32.126Z,11.99
2022-08-21T05:37:07.526Z,12.00
2022-08-21T05:37:39.295Z,12.07
2022-08-21T05:38:14.885Z,12.18
2022-08-21T05:38:49.490Z,12.27
2022-08-21T05:39:20.955Z,12.20
2022-08-21T05:40:05.393Z,12.20
2022-08-21T05:40:44.409Z,12.36
2022-08-21T05:41:15.886Z,12.50
2022-08-21T05:41:48.841Z,12.57
2022-08-21T05:42:20.332Z,12.50
2022-08-21T05:42:56.022Z,12.50
2022-08-21T05:43:27.496Z,12.53
2022-08-21T05:43:58.907Z,12.58
2022-08-21T05:44:30.479Z,12.53
2022-08-21T05:45:01.973Z,12.50
2022-08-21T05:45:41.983Z,12.64
2022-08-21T05:46:15.357Z,13.00
2022-08-21T05:46:46.799Z,13.58
2022-08-21T05:47:18.282Z,14.14
2022-08-21T05:47:49.747Z,14.63
2022-08-21T05:48:22.007Z,15.19
2022-08-21T05:48:53.453Z,15.44
2022-08-21T05:49:24.862Z,16.13
2022-08-21T05:49:56.309Z,16.34
2022-08-21T05:50:33.057Z,16.74
2022-08-21T05:51:12.407Z,17.28
2022-08-21T05:51:43.831Z,17.85
2022-08-21T05:52:19.173Z,18.32
2022-08-21T05:52:50.682Z,18.55
2022-08-21T05:53:27.987Z,19.01
2022-08-21T05:53:59.692Z,18.80
2022-08-21T05:54:31.369Z,19.62
2022-08-21T05:55:03.034Z,19.71
2022-08-21T05:55:34.579Z,19.89
2022-08-21T05:56:06.321Z,19.51
2022-08-21T05:56:38.175Z,20.21
2022-08-21T05:57:09.599Z,20.55
2022-08-21T05:57:42.249Z,20.77
2022-08-21T05:58:17.644Z,20.70
2022-08-21T05:58:49.335Z,21.15
2022-08-21T05:59:20.940Z,21.64
2022-08-21T05:59:52.423Z,21.65
2022-08-21T06:00:24.134Z,21.58
2022-08-21T06:00:55.654Z,21.13
2022-08-21T06:01:27.169Z,21.19
2022-08-21T06:02:01.261Z,21.78
2022-08-21T06:02:36.976Z,21.84
2022-08-21T06:03:15.198Z,22.61
2022-08-21T06:03:46.737Z,22.29
2022-08-21T06:04:18.626Z,22.51
2022-08-21T06:04:50.112Z,22.65
2022-08-21T06:05:36.449Z,22.79
2022-08-21T06:06:08.916Z,22.38
2022-08-21T06:06:40.477Z,22.41
2022-08-21T06:07:12.032Z,22.49
2022-08-21T06:07:43.499Z,22.21
2022-08-21T06:08:15.757Z,23.28
2022-08-21T06:08:47.183Z,23.36
2022-08-21T06:09:18.623Z,22.71
2022-08-21T06:09:50.071Z,22.20
2022-08-21T06:10:21.729Z,22.90
2022-08-21T06:10:53.755Z,23.03
2022-08-21T06:11:28.876Z,23.22
2022-08-21T06:12:04.387Z,23.14
2022-08-21T06:12:35.816Z,24.45
2022-08-21T06:13:09.211Z,24.15
2022-08-21T06:13:41.792Z,23.02
2022-08-21T06:14:16.221Z,23.26
2022-08-21T06:14:47.755Z,22.96
2022-08-21T06:15:19.605Z,23.09
2022-08-21T06:15:51.304Z,23.17
2022-08-21T06:16:23.489Z,23.70
2022-08-21T06:16:54.954Z,24.21
2022-08-21T06:17:26.483Z,24.63
2022-08-21T06:17:57.950Z,24.05
2022-08-21T06:18:29.769Z,24.09
2022-08-21T06:19:03.055Z,23.76
2022-08-21T06:19:34.948Z,23.02
2022-08-21T06:20:06.752Z,23.52
2022-08-21T06:20:38.588Z,23.98
2022-08-21T06:21:10.479Z,24.51
2022-08-21T06:21:41.957Z,24.90
2022-08-21T06:22:13.562Z,25.47
2022-08-21T06:22:45.113Z,25.55
2022-08-21T06:23:16.628Z,25.83
2022-08-21T06:23:48.488Z,26.09
2022-08-21T06:24:19.908Z,26.42
2022-08-21T06:24:51.396Z,26.25
2022-08-21T06:25:23.091Z,26.01
2022-08-21T06:25:54.555Z,25.83
2022-08-21T06:26:29.019Z,25.69
2022-08-21T06:27:05.066Z,25.95
2022-08-21T06:27:36.765Z,25.92
2022-08-21T06:28:09.638Z,25.60
2022-08-21T06:28:41.695Z,25.53
2022-08-21T06:29:17.331Z,24.99
2022-08-21T06:29:48.831Z,25.21
2022-08-21T06:30:20.377Z,24.92
2022-08-21T06:30:51.844Z,24.57
2022-08-21T06:31:24.019Z,24.60
2022-08-21T06:31:55.488Z,24.47
2022-08-21T06:32:27.133Z,25.16
2022-08-21T06:32:58.831Z,24.94
2022-08-21T06:33:32.679Z,24.84
2022-08-21T06:34:04.520Z,25.18
2022-08-21T06:34:39.865Z,24.65
2022-08-21T06:35:11.431Z,24.90
2022-08-21T06:35:42.884Z,24.69
2022-08-21T06:36:14.841Z,24.60
2022-08-21T06:36:46.267Z,24.76
2022-08-21T06:37:17.868Z,25.07
2022-08-21T06:37:49.330Z,25.38
2022-08-21T06:38:20.973Z,24.37
2022-08-21T06:38:52.457Z,25.01
2022-08-21T06:39:25.654Z,25.54
2022-08-21T06:40:03.562Z,24.91
2022-08-21T06:40:35.245Z,24.83
2022-08-21T06:41:10.468Z,25.50
2022-08-21T06:41:41.904Z,24.95
2022-08-21T06:42:14.734Z,24.77
2022-08-21T06:42:46.203Z,24.85
2022-08-21T06:43:19.036Z,24.42
2022-08-21T06:43:50.512Z,25.49
2022-08-21T06:44:22.220Z,25.20
2022-08-21T06:44:53.663Z,25.03
2022-08-21T06:45:25.353Z,24.96
2022-08-21T06:45:59.825Z,24.94
2022-08-21T06:46:31.732Z,25.08
2022-08-21T06:47:03.265Z,25.24
2022-08-21T06:47:34.704Z,24.63
2022-08-21T06:48:07.838Z,24.83
2022-08-21T06:48:39.366Z,25.63
2022-08-21T06:49:13.559Z,26.48
2022-08-21T06:49:53.380Z,26.54
2022-08-21T06:50:24.832Z,25.59
2022-08-21T06:50:57.008Z,25.09
2022-08-21T06:51:28.549Z,25.38
2022-08-21T06:52:00.051Z,24.94
2022-08-21T06:52:32.012Z,25.57
2022-08-21T06:53:13.073Z,26.02
2022-08-21T06:53:44.591Z,25.95
2022-08-21T06:54:16.106Z,25.91
2022-08-21T06:54:47.609Z,26.46
2022-08-21T06:55:21.221Z,27.13
2022-08-21T06:55:53.918Z,26.70
2022-08-21T06:56:25.443Z,25.60
2022-08-21T06:56:57.083Z,26.89
2022-08-21T06:57:28.628Z,27.20
2022-08-21T06:58:00.312Z,27.25
2022-08-21T06:58:32.027Z,27.37
2022-08-21T06:59:04.042Z,27.08
2022-08-21T06:59:35.527Z,27.91
2022-08-21T07:00:07.512Z,27.81
2022-08-21T07:00:40.415Z,26.55
2022-08-21T07:01:12.021Z,26.92
2022-08-21T07:01:43.642Z,27.15